Webcam  Webcam


Thunder radar more information blitzortung!


Rain radar more information rain snow radar



Nearby METAR Reports

   
EHVK - Volkel Rnlafb, Netherlands
Distance from station: SW 18 km
Updated: 24-06-2021 20:25
Overcast  
Overcast  
   Wind: varies 0.5 m/s
Wind: varies 0.5 m/s
Temperature: 18°C
Dew Point: 12°C
Humidity: 68%
Barometer: 1019 hPa
Clouds: Overcast
Visibility: More than 10 km
Cloud details: Overcast 6200 ft
EHVK 241825Z AUTO VRB01KT 9999 OVC062 18/12 Q1019 BLU
EDLV - Niederrhein, Germany
Distance from station: SE 25 km
Updated: 24-06-2021 20:20
Clear  
Clear  
   Wind: WNW 2.6 m/s
Wind: WNW 2.6 m/s
Temperature: 18°C
Dew Point: 13°C
Humidity: 73%
Barometer: 1019 hPa
Visibility: More than 10 km
Cloud details: Clear
EDLV 241820Z 30005KT 270V330 CAVOK 18/13 Q1019
EHEH - Eindhoven Rnlafb, Netherlands
Distance from station: SW 48 km
Updated: 24-06-2021 20:25
Overcast  
Overcast  
   Wind: varies 1 m/s
Wind: varies 1 m/s
Temperature: 18°C
Dew Point: 12°C
Humidity: 68%
Barometer: 1019 hPa
Clouds: Overcast
Visibility: More than 10 km
Cloud details: Overcast 5600 ft
EHEH 241825Z AUTO VRB02KT 9999 OVC056 18/12 Q1019 BLU NOSIG
EHGR - Gilze-Rijen Rnla, Netherlands
Distance from station: WSW 70 km
Updated: 24-06-2021 20:25
Overcast  
Overcast  
   Wind: WNW 4.1 m/s
Wind: WNW 4.1 m/s
Temperature: 18°C
Dew Point: 12°C
Humidity: 68%
Barometer: 1019 hPa
Clouds: Overcast
Visibility: More than 10 km
Cloud details: Overcast 5300 ft
EHGR 241825Z AUTO 29008KT 9999 OVC053 18/12 Q1019 BLU
EBBL - Kleine-Brogel(Ba, Belgium
Distance from station: SSW 71 km
Updated: 24-06-2021 19:55
Overcast  
Overcast  
   Wind: NNW 2.1 m/s
Wind: NNW 2.1 m/s
Temperature: 18°C
Dew Point: 12°C
Humidity: 68%
Barometer: 1019 hPa
Clouds: Overcast
Visibility: More than 10 km
Cloud details: Overcast 6300 ft
EBBL 241755Z AUTO 34004KT 9999 OVC063/// 18/12 Q1019 BLU
 

Script developed by  Saratoga-weather.org Adapted for the template by  Weerstation Leuven

You find our weather info also at:

UK Metoffice

European Weather Network

WeatherCloud

Weather Underground

AWEKAS

Citizen Weather Observer Program (CWOP)

HAMweather, WeatherForYou, PWS Weather

Equipment we use:

Weather-station
Davis VP2

Weather-program
Meteobridge

Weather-server
Meteobridge Pro

Davis VP2

Meteobridge

Meteobridge Pro